Portada
METAR-TAF:

METAR-TAF

Aeroports :

Nassau, Bahames

latitud: 25-03N, longitud: 077-28W, altitud: 3 m

Observació

L'informe es va fer fa 56 minuts, a les 02:00 UTC
Vent 4 kt del Est/Sud-Est
Temperatura 22°C
Humitat 88%
Pressió 1021 hPa
Visibilitat 10 km o més
sense núvols per sota de 1500 mi sense presència de cumulonimbus.

METAR: MYNN 030200Z 12004KT CAVOK 22/20 A3014

Hora: 21:56 (02:56 UTC)

Pronòstic

L'informe es va fer fa 3 hores i 46 minuts, a les 23:10 UTC
Pronòstic vàlid del 03 a les 00 UTC al 03 a les 24 UTC
Vent 10 kt del Sud-Est
Visibilitat 10 km o més
Núvols disperses a una alçada de 2500 ft

TAF: MYNN 022310Z 0300/0324 14010KT 9999 SCT025

Observacions i pronòstics meteorològics de més de 4000 aeroports (METAR i TAF).

Les estacions disponibles són els punts grocs i vermells al mapa.

Posi el ratolí al punt desitjat per veure el nom de l'estació.

Feu clic per veure les observacions i els pronòstics meteorològics.

Per canviar el mapa: feu clic els botons verds amb una creu de color negre per apropar; al botó verd amb un guió per allunyar la imatge; o en les fletxes verdes per a mapes adjacents.


METAR-TAF: